Terminal Aerodrome Forecast
Issued by NWS Jackson, KY

Home | Current Version | Previous Version | Text Only | Print | Product List | Glossary On
Versions: 1 2 3 4 5 6 7 8 9 10 11 12 13 14 15 16 17 18 19 20 21
000
FTUS43 KJKL 271739
TAFJKL
TAF
KJKL 271739Z 2718/2818 VRB06KT P6SM VCTS SCT020 BKN050CB
     FM272300 VRB06KT P6SM SCT020 BKN050
     FM280400 00000KT 4SM BR SCT060
     FM280800 00000KT 2SM BR SCT060
     FM281400 VRB06KT P6SM VCTS BKN050CB=

USA.gov is the U.S. government's official web portal to all federal, state and local government web resources and services.